Anapa, Russia

11:48 AM MSK on August 28, 2015 (GMT +0300)
Vityazevo | | Change Station
CLOSE
Current Station
Airport
Location: Anapa,
Elevation: 174 ft
Nearby Weather Stations

Elev 174 ft 45.00 °N, 37.35 °E | Updated 18 minutes ago

Clear
Clear
84 °F
Feels Like 84 °F
N
13
Wind Variable Wind from ENE

Today
High -- | Low -- °F
--% Chance of Precip.
Yesterday
High -- | Low -- °F
Precip. -- in
5:47 AM 7:15 PM
Waxing Gibbous, 97% visible
Pressure 30.09 in
Visibility -9999.0 miles
Clouds
Dew Point 45 °F
Humidity 25%
Rainfall 0.00 in
Snow Depth Not available.
UV Not available.
Pollen Not available.
Air Quality Not available.
Flu Activity Not available.
METAR URKA 280830Z 06006MPS CAVOK 29/07 Q1019 R04/010070 NOSIG RMK QFE761/1014
Pressure 30.09 in
Visibility -9999.0 miles
Clouds
Dew Point 45 °F
Humidity 25%
Rainfall 0.00 in
Snow Depth Not available.
UV Not available.
Pollen Not available.
Air Quality Not available.
Flu Activity Not available.
METAR URKA 280830Z 06006MPS CAVOK 29/07 Q1019 R04/010070 NOSIG RMK QFE761/1014

10-Day Weather Forecast

×

Almanac

Astronomy

Aug. 28, 2015 Rise Set
Actual Time
Civil Twilight
Nautical Twilight
Astronomical Twilight
Moon
Length of Visible Light
Length of Day
Tomorrow will be .
, % of the Moon is Illuminated

Today's Extremes

Country Highs Country Lows

Community

WunderPhotos

Upload Photos

1,850,348 photos uploaded!

WunderBlogs® & News

Nearby

Air Quality

  Air Quality AQ Index Pollutant
Not available.

Snow Depth

Station Depth Elevation

Earthquake Activity

City Distance Mag. Time & Date
Minimum magnitude displayed is 2.5.

Coastal Water Temperatures

Place Temperature

Stations

Nearby Weather Stations

Station Location Temp. Windchill Dew Point Humidity Wind Precip. Elev Updated Type